Time;durP1;ratioP1;P1;durP2;ratioP2;P2;SDS_P1;SDS_P2;PMS_P1;PMS_P2;Temp;Humidity;BMP_temperature;BMP_pressure;BME280_temperature;BME280_humidity;BME280_pressure;Samples;Min_cycle;Max_cycle;Signal;HPM_P1;HPM_P2
2024/04/15 00:01:00;;;;;;;;;;;12.30;99.90;;;;;;5453706;26;20364;-75
2024/04/15 00:03:26;;;;;;;;;;;12.20;99.90;;;;;;5451872;26;19936;-74
2024/04/15 00:05:51;;;;;;;;;;;12.20;99.90;;;;;;5450867;26;19932;-74
2024/04/15 00:08:17;;;;;;;;;;;12.20;99.90;;;;;;5451633;26;19928;-75
2024/04/15 00:10:42;;;;;;;;;;;12.20;99.90;;;;;;5452355;26;19972;-74
2024/04/15 00:13:08;;;;;;;;;;;12.20;99.90;;;;;;5451202;26;19929;-75
2024/04/15 00:15:33;;;;;;;;;;;12.20;99.90;;;;;;5451330;26;19929;-75
2024/04/15 00:17:59;;;;;;;;;;;11.90;99.90;;;;;;5453641;26;19935;-74
2024/04/15 00:20:26;;;;;;;;;;;11.80;99.90;;;;;;5450659;26;19935;-74
2024/04/15 00:22:52;;;;;;;;;;;11.40;99.90;;;;;;5451395;26;19974;-72
2024/04/15 00:25:17;;;;;;;;;;;11.20;99.90;;;;;;5450714;26;19937;-72
2024/04/15 00:27:43;;;;;;;;;;;10.90;99.90;;;;;;5452915;26;19993;-72
2024/04/15 00:30:08;;;;;;;;;;;10.80;99.90;;;;;;5449647;26;19957;-73
2024/04/15 00:32:34;;;;;;;;;;;10.70;99.90;;;;;;5445237;26;19937;-73
2024/04/15 00:34:59;;;;;;;;;;;10.60;99.90;;;;;;5451993;26;19928;-72
2024/04/15 00:37:25;;;;;;;;;;;10.60;99.90;;;;;;5450355;26;19929;-73
2024/04/15 00:39:52;;;;;;;;;;;10.60;99.90;;;;;;5449921;26;19993;-73
2024/04/15 00:42:17;;;;;;;;;;;10.60;99.90;;;;;;5451004;26;19936;-73
2024/04/15 00:44:43;;;;;;;;;;;10.60;99.90;;;;;;5444234;26;19940;-73
2024/04/15 00:47:09;;;;;;;;;;;10.60;99.90;;;;;;5450984;26;20001;-74
2024/04/15 00:49:37;;;;;;;;;;;10.50;99.90;;;;;;5444349;26;19929;-73
2024/04/15 00:52:03;;;;;;;;;;;10.30;99.90;;;;;;5438322;26;19929;-74
2024/04/15 00:54:31;;;;;;;;;;;10.30;99.90;;;;;;5452593;26;20360;-73
2024/04/15 00:56:57;;;;;;;;;;;10.20;99.90;;;;;;5450551;26;20259;-74
2024/04/15 00:59:23;;;;;;;;;;;10.30;99.90;;;;;;5451640;26;19928;-73
2024/04/15 01:01:49;;;;;;;;;;;10.40;99.90;;;;;;5452982;26;19936;-74
2024/04/15 01:04:15;;;;;;;;;;;10.30;99.90;;;;;;5438196;26;19965;-73
2024/04/15 01:06:40;;;;;;;;;;;10.30;99.90;;;;;;5440897;26;19928;-74
2024/04/15 01:09:06;;;;;;;;;;;10.20;99.90;;;;;;5452149;26;19929;-73
2024/04/15 01:11:32;;;;;;;;;;;10.10;99.90;;;;;;5450983;26;19936;-74
2024/04/15 01:13:57;;;;;;;;;;;10.30;99.90;;;;;;5461819;26;19928;-72
2024/04/15 01:16:33;;;;;;;;;;;10.50;99.90;;;;;;5464968;26;19961;-73
2024/04/15 01:18:58;;;;;;;;;;;10.50;99.90;;;;;;5450141;26;19932;-74
2024/04/15 01:21:24;;;;;;;;;;;10.30;99.90;;;;;;5450426;26;19978;-74
2024/04/15 01:23:49;;;;;;;;;;;10.20;99.90;;;;;;5452499;26;20275;-74
2024/04/15 01:26:15;;;;;;;;;;;10.40;99.90;;;;;;5451480;26;19935;-73
2024/04/15 01:28:40;;;;;;;;;;;10.50;99.90;;;;;;5451431;26;19928;-73
2024/04/15 01:31:06;;;;;;;;;;;10.30;99.90;;;;;;5453731;26;19929;-75
2024/04/15 01:33:31;;;;;;;;;;;10.30;99.90;;;;;;5452315;26;19932;-73
2024/04/15 01:35:57;;;;;;;;;;;10.30;99.90;;;;;;5452376;26;19956;-73
2024/04/15 01:38:22;;;;;;;;;;;10.10;99.90;;;;;;5463097;26;20367;-73
2024/04/15 01:40:48;;;;;;;;;;;10.20;99.90;;;;;;5464509;26;19928;-73
2024/04/15 01:43:13;;;;;;;;;;;9.90;99.90;;;;;;5452005;26;20371;-73
2024/04/15 01:45:39;;;;;;;;;;;9.80;99.90;;;;;;5451143;26;19928;-73
2024/04/15 01:48:04;;;;;;;;;;;9.60;99.90;;;;;;5452189;26;19929;-73
2024/04/15 01:50:30;;;;;;;;;;;9.50;99.90;;;;;;5451151;26;19940;-73
2024/04/15 01:52:55;;;;;;;;;;;9.50;99.90;;;;;;5452043;26;19935;-73
2024/04/15 01:55:21;;;;;;;;;;;9.50;99.90;;;;;;5450728;26;20001;-73
2024/04/15 01:57:46;;;;;;;;;;;9.60;99.90;;;;;;5449984;26;19960;-73
2024/04/15 02:00:12;;;;;;;;;;;9.50;99.90;;;;;;5451332;26;19935;-73
2024/04/15 02:02:37;;;;;;;;;;;9.50;99.90;;;;;;5440674;26;19998;-73
2024/04/15 02:05:05;;;;;;;;;;;9.50;99.90;;;;;;5450017;26;19928;-73
2024/04/15 02:07:31;;;;;;;;;;;9.40;99.90;;;;;;5440857;26;19942;-73
2024/04/15 02:09:56;;;;;;;;;;;9.50;99.90;;;;;;5443828;26;20524;-73
2024/04/15 02:12:22;;;;;;;;;;;9.40;99.90;;;;;;5452130;26;20364;-74
2024/04/15 02:14:47;;;;;;;;;;;9.40;99.90;;;;;;5451249;26;19978;-73
2024/04/15 02:17:13;;;;;;;;;;;9.40;99.90;;;;;;5457158;26;20008;-73
2024/04/15 02:19:38;;;;;;;;;;;9.30;99.90;;;;;;5456853;26;19987;-75
2024/04/15 02:22:04;;;;;;;;;;;9.30;99.90;;;;;;5443023;26;19936;-74
2024/04/15 02:24:29;;;;;;;;;;;9.40;99.90;;;;;;5440547;26;19997;-73
2024/04/15 02:26:55;;;;;;;;;;;9.70;99.90;;;;;;5452935;26;19994;-73
2024/04/15 02:29:20;;;;;;;;;;;9.50;99.90;;;;;;5430497;26;19936;-74
2024/04/15 02:31:46;;;;;;;;;;;9.40;99.90;;;;;;5454714;26;19929;-73
2024/04/15 02:34:11;;;;;;;;;;;9.50;99.90;;;;;;5453236;26;19940;-73
2024/04/15 02:36:37;;;;;;;;;;;9.40;99.90;;;;;;5452031;26;20366;-74
2024/04/15 02:39:02;;;;;;;;;;;9.30;99.90;;;;;;5475742;26;19928;-74
2024/04/15 02:41:28;;;;;;;;;;;9.20;99.90;;;;;;5439949;26;19928;-73
2024/04/15 02:43:53;;;;;;;;;;;9.30;99.90;;;;;;5466418;26;19935;-74
2024/04/15 02:46:19;;;;;;;;;;;9.30;99.90;;;;;;5454579;26;19944;-74
2024/04/15 02:48:44;;;;;;;;;;;9.40;99.90;;;;;;5452413;26;19935;-73
2024/04/15 02:51:10;;;;;;;;;;;9.50;99.90;;;;;;5451603;26;19929;-73
2024/04/15 02:53:35;;;;;;;;;;;9.20;99.90;;;;;;5454655;26;19960;-73
2024/04/15 02:56:01;;;;;;;;;;;9.30;99.90;;;;;;5447451;26;20132;-73
2024/04/15 02:58:26;;;;;;;;;;;9.40;99.90;;;;;;5419998;26;19965;-73
2024/04/15 03:00:52;;;;;;;;;;;9.50;99.90;;;;;;5454387;26;19928;-74
2024/04/15 03:03:17;;;;;;;;;;;9.30;99.90;;;;;;5452966;26;19929;-74
2024/04/15 03:05:45;;;;;;;;;;;9.20;99.90;;;;;;5452382;26;19929;-74
2024/04/15 03:08:11;;;;;;;;;;;9.30;99.90;;;;;;5454122;26;19929;-73
2024/04/15 03:10:37;;;;;;;;;;;9.30;99.90;;;;;;5451785;26;19936;-73
2024/04/15 03:13:02;;;;;;;;;;;9.40;99.90;;;;;;5474748;26;19934;-73
2024/04/15 03:15:28;;;;;;;;;;;9.40;99.90;;;;;;5454091;26;20368;-73
2024/04/15 03:17:54;;;;;;;;;;;9.40;99.90;;;;;;5452737;26;19997;-73
2024/04/15 03:20:19;;;;;;;;;;;9.40;99.90;;;;;;5453564;26;19929;-74
2024/04/15 03:22:45;;;;;;;;;;;9.30;99.90;;;;;;5453920;26;20371;-73
2024/04/15 03:25:11;;;;;;;;;;;9.40;99.90;;;;;;5452517;26;20436;-74
2024/04/15 03:27:37;;;;;;;;;;;9.40;99.90;;;;;;5453310;26;19928;-73
2024/04/15 03:30:02;;;;;;;;;;;9.40;99.90;;;;;;5451970;26;19936;-76
2024/04/15 03:32:28;;;;;;;;;;;9.20;99.90;;;;;;5452131;26;19936;-77
2024/04/15 03:34:53;;;;;;;;;;;9.20;99.90;;;;;;5453673;26;20317;-75
2024/04/15 03:37:19;;;;;;;;;;;9.40;99.90;;;;;;5454144;26;19965;-75
2024/04/15 03:39:46;;;;;;;;;;;9.30;99.90;;;;;;5450948;26;19940;-75
2024/04/15 03:42:12;;;;;;;;;;;9.30;99.90;;;;;;5452990;26;19998;-75
2024/04/15 03:44:37;;;;;;;;;;;9.30;99.90;;;;;;5462780;26;19975;-75
2024/04/15 03:47:03;;;;;;;;;;;9.10;99.90;;;;;;5456823;26;19980;-76
2024/04/15 03:49:28;;;;;;;;;;;9.20;99.90;;;;;;5445415;26;19929;-76
2024/04/15 03:51:54;;;;;;;;;;;9.10;99.90;;;;;;5432059;26;20356;-75
2024/04/15 03:54:19;;;;;;;;;;;9.00;99.90;;;;;;5449731;26;20256;-75
2024/04/15 03:56:45;;;;;;;;;;;9.10;99.90;;;;;;5455535;26;19936;-75
2024/04/15 03:59:10;;;;;;;;;;;9.20;99.90;;;;;;5460025;26;19928;-77
2024/04/15 04:01:36;;;;;;;;;;;9.10;99.90;;;;;;5467919;26;20013;-76
2024/04/15 04:04:01;;;;;;;;;;;9.20;99.90;;;;;;5453225;26;19978;-76
2024/04/15 04:06:27;;;;;;;;;;;9.20;99.90;;;;;;5453282;26;19929;-76
2024/04/15 04:08:53;;;;;;;;;;;9.00;99.90;;;;;;5452325;26;19928;-76
2024/04/15 04:11:21;;;;;;;;;;;9.10;99.90;;;;;;5453479;26;19997;-77
2024/04/15 04:13:47;;;;;;;;;;;9.00;99.90;;;;;;5453438;26;20372;-76
2024/04/15 04:16:13;;;;;;;;;;;9.30;99.90;;;;;;5452227;26;19940;-76
2024/04/15 04:18:38;;;;;;;;;;;9.30;99.90;;;;;;5450117;26;20383;-78
2024/04/15 04:21:10;;;;;;;;;;;9.20;99.90;;;;;;5453483;26;19956;-76
2024/04/15 04:23:36;;;;;;;;;;;9.10;99.90;;;;;;5453289;26;20296;-76
2024/04/15 04:26:01;;;;;;;;;;;8.90;99.90;;;;;;5454334;26;19932;-76
2024/04/15 04:28:27;;;;;;;;;;;8.80;99.90;;;;;;5445317;26;19929;-76
2024/04/15 04:30:52;;;;;;;;;;;8.70;99.90;;;;;;5438579;26;19935;-77
2024/04/15 04:33:19;;;;;;;;;;;8.70;99.90;;;;;;5444651;26;20618;-75
2024/04/15 04:35:45;;;;;;;;;;;8.60;99.90;;;;;;5440160;26;20406;-77
2024/04/15 04:38:10;;;;;;;;;;;8.60;99.90;;;;;;5451751;26;19936;-76
2024/04/15 04:40:36;;;;;;;;;;;8.50;99.90;;;;;;5455789;26;19935;-76
2024/04/15 04:43:01;;;;;;;;;;;8.40;99.90;;;;;;5452022;26;19929;-76
2024/04/15 04:45:27;;;;;;;;;;;8.50;99.90;;;;;;5454131;26;19955;-77
2024/04/15 04:47:52;;;;;;;;;;;8.50;99.90;;;;;;5444537;26;19929;-77
2024/04/15 04:50:18;;;;;;;;;;;8.60;99.90;;;;;;5452355;26;19938;-76
2024/04/15 04:52:43;;;;;;;;;;;8.70;99.90;;;;;;5449870;26;19928;-76
2024/04/15 04:55:09;;;;;;;;;;;8.80;99.90;;;;;;5452464;26;19940;-77
2024/04/15 04:57:34;;;;;;;;;;;9.00;99.90;;;;;;5436569;26;19929;-76
2024/04/15 05:00:00;;;;;;;;;;;9.00;99.90;;;;;;5453094;26;19935;-76
2024/04/15 05:02:25;;;;;;;;;;;9.10;99.90;;;;;;5450989;26;19997;-76
2024/04/15 05:04:55;;;;;;;;;;;9.10;99.90;;;;;;5451378;26;19928;-77
2024/04/15 05:07:21;;;;;;;;;;;9.10;99.90;;;;;;5450733;26;19936;-76
2024/04/15 05:09:46;;;;;;;;;;;9.20;99.90;;;;;;5450147;26;19996;-76
2024/04/15 05:12:12;;;;;;;;;;;9.20;99.90;;;;;;5452145;26;19976;-76
2024/04/15 05:14:37;;;;;;;;;;;9.20;99.90;;;;;;5453439;26;19928;-75
2024/04/15 05:17:04;;;;;;;;;;;9.30;99.90;;;;;;5452714;26;20364;-76
2024/04/15 05:19:29;;;;;;;;;;;9.30;99.90;;;;;;5452179;26;19929;-76
2024/04/15 05:21:55;;;;;;;;;;;9.50;99.90;;;;;;5452254;26;20375;-77
2024/04/15 05:24:20;;;;;;;;;;;9.50;99.90;;;;;;5452708;26;19929;-76
2024/04/15 05:26:46;;;;;;;;;;;9.50;99.90;;;;;;5450057;26;20400;-76
2024/04/15 05:29:13;;;;;;;;;;;9.50;99.90;;;;;;5449838;26;21585;-77
2024/04/15 05:31:39;;;;;;;;;;;9.50;99.90;;;;;;5451573;26;19928;-75
2024/04/15 05:34:04;;;;;;;;;;;9.60;99.90;;;;;;5451752;26;19935;-76
2024/04/15 05:36:30;;;;;;;;;;;9.80;99.90;;;;;;5453227;26;19960;-76
2024/04/15 05:38:55;;;;;;;;;;;9.80;99.90;;;;;;5446798;26;20360;-78
2024/04/15 05:41:21;;;;;;;;;;;9.80;99.90;;;;;;5449944;26;19929;-76
2024/04/15 05:43:46;;;;;;;;;;;9.80;99.90;;;;;;5449534;26;19935;-76
2024/04/15 05:46:12;;;;;;;;;;;9.60;99.90;;;;;;5448049;26;19928;-76
2024/04/15 05:48:38;;;;;;;;;;;9.40;99.90;;;;;;5435159;26;19929;-79
2024/04/15 05:51:03;;;;;;;;;;;9.40;99.90;;;;;;5439476;26;19996;-76
2024/04/15 05:53:29;;;;;;;;;;;9.80;99.90;;;;;;5448849;26;19955;-76
2024/04/15 05:55:55;;;;;;;;;;;9.80;99.90;;;;;;5445153;26;19935;-76
2024/04/15 05:58:21;;;;;;;;;;;9.90;99.90;;;;;;5450209;26;19936;-76
2024/04/15 06:00:46;;;;;;;;;;;9.90;99.90;;;;;;5447676;26;20271;-76
2024/04/15 06:03:12;;;;;;;;;;;9.80;99.90;;;;;;5446052;26;19991;-76
2024/04/15 06:05:37;;;;;;;;;;;9.90;99.90;;;;;;5443110;26;19929;-76
2024/04/15 06:08:03;;;;;;;;;;;10.10;99.90;;;;;;5415317;26;20282;-76
2024/04/15 06:10:29;;;;;;;;;;;10.10;99.90;;;;;;5437029;26;19965;-77
2024/04/15 06:12:54;;;;;;;;;;;10.20;99.90;;;;;;5434165;26;19982;-77
2024/04/15 06:15:20;;;;;;;;;;;11.00;99.90;;;;;;5441123;26;19944;-78
2024/04/15 06:17:46;;;;;;;;;;;11.70;99.90;;;;;;5447883;26;19928;-77
2024/04/15 06:20:11;;;;;;;;;;;11.90;99.90;;;;;;5432604;26;19936;-77
2024/04/15 06:22:37;;;;;;;;;;;12.10;99.90;;;;;;5434658;26;19936;-77
2024/04/15 06:25:03;;;;;;;;;;;12.20;99.90;;;;;;5447025;26;19928;-77
2024/04/15 06:27:28;;;;;;;;;;;12.10;99.90;;;;;;5447849;26;20287;-77
2024/04/15 06:29:54;;;;;;;;;;;12.10;99.90;;;;;;5433585;26;19929;-77
2024/04/15 06:32:19;;;;;;;;;;;12.10;99.90;;;;;;5430340;26;19940;-76
2024/04/15 06:34:46;;;;;;;;;;;12.10;99.90;;;;;;5435837;26;19961;-75
2024/04/15 06:37:12;;;;;;;;;;;12.20;99.90;;;;;;5448316;26;19943;-75
2024/04/15 06:39:37;;;;;;;;;;;12.40;99.90;;;;;;5444753;26;20363;-77
2024/04/15 06:42:03;;;;;;;;;;;12.40;99.90;;;;;;5431865;26;20404;-75
2024/04/15 06:44:31;;;;;;;;;;;12.60;99.90;;;;;;5436255;26;19969;-80
2024/04/15 06:46:57;;;;;;;;;;;12.90;99.90;;;;;;5450693;26;19928;-76
2024/04/15 06:49:22;;;;;;;;;;;13.10;99.90;;;;;;5450537;26;19935;-76
2024/04/15 06:51:48;;;;;;;;;;;13.10;99.90;;;;;;5440458;26;19935;-75
2024/04/15 06:54:13;;;;;;;;;;;13.10;99.90;;;;;;5438833;26;19995;-76
2024/04/15 06:56:39;;;;;;;;;;;13.10;99.90;;;;;;5448400;26;19940;-77
2024/04/15 06:59:04;;;;;;;;;;;13.10;99.90;;;;;;5453007;26;19936;-77
2024/04/15 07:01:29;;;;;;;;;;;13.10;99.90;;;;;;5448946;26;19943;-76
2024/04/15 07:03:56;;;;;;;;;;;13.10;99.90;;;;;;5461327;26;19936;-77
2024/04/15 07:06:22;;;;;;;;;;;12.90;99.90;;;;;;5453500;26;19935;-76
2024/04/15 07:08:48;;;;;;;;;;;13.10;99.90;;;;;;5453019;26;20283;-76
2024/04/15 07:11:13;;;;;;;;;;;13.30;99.90;;;;;;5451535;26;19961;-77
2024/04/15 07:13:38;;;;;;;;;;;13.70;99.90;;;;;;5451462;26;19929;-76
2024/04/15 07:16:04;;;;;;;;;;;13.80;99.90;;;;;;5451759;26;19970;-77
2024/04/15 07:18:30;;;;;;;;;;;14.20;99.90;;;;;;5452331;26;19935;-76
2024/04/15 07:20:55;;;;;;;;;;;14.30;99.90;;;;;;5452955;26;19934;-76
2024/04/15 07:23:21;;;;;;;;;;;14.20;99.90;;;;;;5437125;26;19996;-77
2024/04/15 07:25:46;;;;;;;;;;;14.10;99.90;;;;;;5456352;26;19932;-80
2024/04/15 07:28:12;;;;;;;;;;;14.10;99.90;;;;;;5438943;26;19943;-75
2024/04/15 07:30:37;;;;;;;;;;;14.00;99.90;;;;;;5451087;26;19928;-78
2024/04/15 07:33:03;;;;;;;;;;;14.30;99.90;;;;;;5459092;26;19956;-76
2024/04/15 07:35:30;;;;;;;;;;;14.50;99.90;;;;;;5450367;26;19934;-79
2024/04/15 07:37:56;;;;;;;;;;;14.80;99.90;;;;;;5451636;26;19945;-76
2024/04/15 07:40:22;;;;;;;;;;;15.40;99.90;;;;;;5450887;26;20285;-77
2024/04/15 07:42:47;;;;;;;;;;;15.80;99.90;;;;;;5443469;26;19927;-76
2024/04/15 07:45:13;;;;;;;;;;;16.20;99.90;;;;;;5460196;26;20270;-79
2024/04/15 07:47:38;;;;;;;;;;;16.30;99.90;;;;;;5449496;26;20707;-79
2024/04/15 07:50:04;;;;;;;;;;;16.00;99.90;;;;;;5440619;26;19929;-77
2024/04/15 07:52:30;;;;;;;;;;;15.70;99.90;;;;;;5453737;26;19936;-77
2024/04/15 07:54:56;;;;;;;;;;;15.40;99.90;;;;;;5442813;26;19929;-75
2024/04/15 07:57:21;;;;;;;;;;;15.40;99.90;;;;;;5437812;26;19936;-77
2024/04/15 07:59:47;;;;;;;;;;;15.70;99.90;;;;;;5450054;26;19928;-76
2024/04/15 08:02:13;;;;;;;;;;;15.90;99.90;;;;;;5451617;26;20046;-77
2024/04/15 08:04:38;;;;;;;;;;;15.90;99.90;;;;;;5451891;26;20051;-76
2024/04/15 08:07:04;;;;;;;;;;;15.70;99.90;;;;;;5441612;26;19928;-77
2024/04/15 08:09:30;;;;;;;;;;;15.90;99.90;;;;;;5441866;26;19936;-75
2024/04/15 08:11:55;;;;;;;;;;;16.10;99.90;;;;;;5438193;26;19937;-77
2024/04/15 08:14:21;;;;;;;;;;;16.30;99.90;;;;;;5461975;26;19940;-77
2024/04/15 08:16:46;;;;;;;;;;;16.50;99.90;;;;;;5451791;26;19968;-76
2024/04/15 08:19:12;;;;;;;;;;;16.60;99.90;;;;;;5440498;26;19928;-76
2024/04/15 08:21:37;;;;;;;;;;;16.60;99.90;;;;;;5434279;26;19929;-76
2024/04/15 08:24:03;;;;;;;;;;;16.50;99.90;;;;;;5457960;26;19928;-81
2024/04/15 08:26:28;;;;;;;;;;;16.40;99.90;;;;;;5450625;26;19963;-76
2024/04/15 08:28:54;;;;;;;;;;;16.30;99.90;;;;;;5450480;26;19960;-76
2024/04/15 08:31:19;;;;;;;;;;;16.40;99.90;;;;;;5455842;26;20268;-76
2024/04/15 08:33:45;;;;;;;;;;;16.80;99.90;;;;;;5446433;26;19928;-79
2024/04/15 08:36:12;;;;;;;;;;;17.40;99.90;;;;;;5451974;26;19956;-75
2024/04/15 08:38:43;;;;;;;;;;;17.40;99.90;;;;;;5451004;26;20404;-75
2024/04/15 08:41:10;;;;;;;;;;;17.30;99.90;;;;;;5452339;26;20313;-79
2024/04/15 08:43:36;;;;;;;;;;;17.10;99.90;;;;;;5436286;26;20268;-75
2024/04/15 08:46:02;;;;;;;;;;;16.80;99.90;;;;;;5448358;26;20067;-74
2024/04/15 08:48:28;;;;;;;;;;;16.40;99.90;;;;;;5450341;26;19936;-75
2024/04/15 08:50:54;;;;;;;;;;;16.60;99.90;;;;;;5455680;26;20473;-75
2024/04/15 08:53:20;;;;;;;;;;;16.50;99.90;;;;;;5429505;26;20297;-75
2024/04/15 08:55:45;;;;;;;;;;;16.30;99.90;;;;;;5449927;26;19943;-75
2024/04/15 08:58:11;;;;;;;;;;;16.50;99.90;;;;;;5452368;26;19940;-74
2024/04/15 09:00:37;;;;;;;;;;;16.10;99.90;;;;;;5451176;26;19935;-75
2024/04/15 09:03:04;;;;;;;;;;;16.80;99.90;;;;;;5451334;26;19960;-75
2024/04/15 09:05:29;;;;;;;;;;;17.70;99.90;;;;;;5430317;26;19939;-77
2024/04/15 09:07:55;;;;;;;;;;;18.70;99.90;;;;;;5440480;26;19936;-75
2024/04/15 09:10:20;;;;;;;;;;;19.50;99.10;;;;;;5425813;26;19929;-75
2024/04/15 09:12:47;;;;;;;;;;;20.10;97.10;;;;;;5450002;26;19928;-76
2024/04/15 09:15:14;;;;;;;;;;;19.50;96.60;;;;;;5450234;26;19993;-75
2024/04/15 09:17:40;;;;;;;;;;;18.50;97.10;;;;;;5452993;26;20001;-75
2024/04/15 09:20:06;;;;;;;;;;;17.90;98.70;;;;;;5457231;26;19932;-76
2024/04/15 09:22:32;;;;;;;;;;;17.60;99.00;;;;;;5439613;26;19936;-76
2024/04/15 09:24:58;;;;;;;;;;;17.40;99.00;;;;;;5444194;26;19928;-75
2024/04/15 09:27:26;;;;;;;;;;;17.20;99.00;;;;;;5440757;26;19929;-78
2024/04/15 09:29:52;;;;;;;;;;;17.00;99.30;;;;;;5446128;26;20367;-76
2024/04/15 09:32:18;;;;;;;;;;;16.80;99.50;;;;;;5447937;26;19936;-77
2024/04/15 09:34:44;;;;;;;;;;;16.70;99.90;;;;;;5433000;26;19971;-75
2024/04/15 09:37:09;;;;;;;;;;;16.80;99.80;;;;;;5451480;26;19935;-75
2024/04/15 09:39:36;;;;;;;;;;;17.00;99.70;;;;;;5434319;26;19928;-79
2024/04/15 09:42:02;;;;;;;;;;;17.20;99.90;;;;;;5446488;26;21419;-76
2024/04/15 09:44:29;;;;;;;;;;;17.40;99.90;;;;;;5450451;26;19968;-75
2024/04/15 09:47:02;;;;;;;;;;;17.50;98.90;;;;;;5453853;26;19929;-75
2024/04/15 09:49:29;;;;;;;;;;;17.70;98.80;;;;;;5435073;26;20338;-78
2024/04/15 09:51:58;;;;;;;;;;;17.50;97.30;;;;;;5441459;26;19935;-76
2024/04/15 09:54:30;;;;;;;;;;;17.20;97.30;;;;;;5440501;26;19929;-76
2024/04/15 09:57:03;;;;;;;;;;;17.10;98.20;;;;;;5436559;26;20260;-77
2024/04/15 09:59:32;;;;;;;;;;;17.20;97.70;;;;;;5441811;26;19928;-76
2024/04/15 10:01:59;;;;;;;;;;;17.10;97.50;;;;;;5450311;26;19928;-75
2024/04/15 10:04:26;;;;;;;;;;;17.00;97.60;;;;;;5444586;26;19935;-76
2024/04/15 10:06:57;;;;;;;;;;;17.00;97.70;;;;;;5450108;26;19928;-76
2024/04/15 10:09:23;;;;;;;;;;;16.80;97.50;;;;;;5429368;26;19943;-76
2024/04/15 10:11:49;;;;;;;;;;;16.60;98.00;;;;;;5449158;26;19941;-76
2024/04/15 10:14:15;;;;;;;;;;;16.60;98.20;;;;;;5449452;26;19936;-76
2024/04/15 10:16:44;;;;;;;;;;;16.70;98.60;;;;;;5452782;26;20243;-76
2024/04/15 10:19:10;;;;;;;;;;;16.90;98.90;;;;;;5439753;26;19941;-79
2024/04/15 10:21:36;;;;;;;;;;;17.20;98.10;;;;;;5453646;26;19929;-76
2024/04/15 10:24:02;;;;;;;;;;;17.50;98.20;;;;;;5419421;26;20256;-77
2024/04/15 10:26:29;;;;;;;;;;;17.30;97.00;;;;;;5440366;26;19928;-77
2024/04/15 10:29:11;;;;;;;;;;;17.40;97.10;;;;;;5446254;26;19929;-77
2024/04/15 10:31:40;;;;;;;;;;;17.60;96.80;;;;;;5448131;26;19928;-81
2024/04/15 10:34:05;;;;;;;;;;;17.30;97.10;;;;;;5441423;26;19928;-77
2024/04/15 10:36:35;;;;;;;;;;;17.10;98.20;;;;;;5448885;26;19928;-77
2024/04/15 10:39:03;;;;;;;;;;;17.00;96.90;;;;;;5435737;26;19940;-77
2024/04/15 10:41:29;;;;;;;;;;;17.10;97.00;;;;;;5453489;26;19929;-77
2024/04/15 10:43:55;;;;;;;;;;;17.40;96.80;;;;;;5432440;26;20291;-76
2024/04/15 10:46:22;;;;;;;;;;;17.60;96.80;;;;;;5435797;26;20394;-78
2024/04/15 10:48:47;;;;;;;;;;;17.80;96.80;;;;;;5451486;26;20368;-77
2024/04/15 10:51:13;;;;;;;;;;;17.80;96.40;;;;;;5444233;26;19974;-79
2024/04/15 10:53:40;;;;;;;;;;;17.90;95.90;;;;;;5453239;26;19957;-80
2024/04/15 10:56:06;;;;;;;;;;;17.70;96.30;;;;;;5451592;26;20375;-76
2024/04/15 10:58:32;;;;;;;;;;;17.80;96.70;;;;;;5453142;26;20221;-76
2024/04/15 11:00:57;;;;;;;;;;;17.50;96.40;;;;;;5461435;26;19996;-76
2024/04/15 11:03:24;;;;;;;;;;;17.10;96.30;;;;;;5440203;26;19940;-78
2024/04/15 11:05:49;;;;;;;;;;;16.90;96.80;;;;;;5452061;26;19928;-81
2024/04/15 11:08:16;;;;;;;;;;;16.50;97.10;;;;;;5451223;26;20005;-77
2024/04/15 11:10:42;;;;;;;;;;;16.30;97.80;;;;;;5459436;26;20386;-77
2024/04/15 11:13:10;;;;;;;;;;;16.20;98.20;;;;;;5451589;26;19936;-78
2024/04/15 11:15:36;;;;;;;;;;;15.90;99.10;;;;;;5443095;26;19928;-78
2024/04/15 11:18:02;;;;;;;;;;;15.80;99.90;;;;;;5450101;26;19935;-77
2024/04/15 11:20:28;;;;;;;;;;;15.40;99.90;;;;;;5460390;26;19929;-77
2024/04/15 11:22:53;;;;;;;;;;;15.10;99.90;;;;;;5446784;26;19944;-78
2024/04/15 11:25:19;;;;;;;;;;;14.80;99.90;;;;;;5435372;26;19929;-78
2024/04/15 11:27:50;;;;;;;;;;;14.40;99.90;;;;;;5444949;26;19928;-77
2024/04/15 11:30:20;;;;;;;;;;;14.30;99.90;;;;;;5440261;26;19929;-77
2024/04/15 11:32:46;;;;;;;;;;;14.20;99.90;;;;;;5451760;26;19928;-78
2024/04/15 11:35:11;;;;;;;;;;;14.10;99.90;;;;;;5452688;26;20263;-77
2024/04/15 11:37:37;;;;;;;;;;;14.20;99.90;;;;;;5454353;26;19935;-77
2024/04/15 11:40:03;;;;;;;;;;;14.30;99.90;;;;;;5438669;26;19929;-76
2024/04/15 11:42:29;;;;;;;;;;;14.50;99.90;;;;;;5459138;26;19935;-77
2024/04/15 11:44:55;;;;;;;;;;;14.60;99.90;;;;;;5454013;26;19935;-77
2024/04/15 11:47:21;;;;;;;;;;;14.60;99.90;;;;;;5452145;26;19940;-77
2024/04/15 11:49:47;;;;;;;;;;;14.60;99.90;;;;;;5458169;26;19928;-77
2024/04/15 11:52:14;;;;;;;;;;;14.60;99.90;;;;;;5451793;26;19935;-77
2024/04/15 11:54:40;;;;;;;;;;;14.50;99.90;;;;;;5451983;26;19974;-78
2024/04/15 11:57:05;;;;;;;;;;;14.50;99.90;;;;;;5445083;26;19997;-77
2024/04/15 11:59:31;;;;;;;;;;;14.40;99.90;;;;;;5452004;26;19940;-76
2024/04/15 12:01:57;;;;;;;;;;;14.40;99.90;;;;;;5449356;26;20046;-77
2024/04/15 12:04:22;;;;;;;;;;;14.60;99.90;;;;;;5449927;26;19997;-77
2024/04/15 12:06:51;;;;;;;;;;;14.60;99.90;;;;;;5454334;26;19935;-77
2024/04/15 12:09:17;;;;;;;;;;;14.70;99.90;;;;;;5440567;26;19940;-77
2024/04/15 12:11:43;;;;;;;;;;;14.90;99.90;;;;;;5428862;26;19935;-80
2024/04/15 12:14:08;;;;;;;;;;;15.30;99.90;;;;;;5439956;26;19960;-76
2024/04/15 12:16:34;;;;;;;;;;;15.60;99.90;;;;;;5447470;26;19928;-78
2024/04/15 12:18:59;;;;;;;;;;;15.70;99.90;;;;;;5451728;26;20400;-78
2024/04/15 12:21:25;;;;;;;;;;;16.00;99.90;;;;;;5443413;26;19943;-75
2024/04/15 12:23:50;;;;;;;;;;;16.00;99.90;;;;;;5447695;26;19939;-75
2024/04/15 12:26:16;;;;;;;;;;;15.70;99.90;;;;;;5437430;26;19937;-76
2024/04/15 12:28:41;;;;;;;;;;;15.20;99.90;;;;;;5440384;26;20367;-76
2024/04/15 12:31:10;;;;;;;;;;;14.60;99.90;;;;;;5451255;26;19928;-76
2024/04/15 12:33:35;;;;;;;;;;;14.30;99.90;;;;;;5453451;26;19929;-76
2024/04/15 12:36:01;;;;;;;;;;;14.00;99.90;;;;;;5443634;26;20526;-75
2024/04/15 12:38:26;;;;;;;;;;;13.50;99.90;;;;;;5453898;26;20337;-76
2024/04/15 12:40:52;;;;;;;;;;;13.40;99.90;;;;;;5451780;26;19935;-76
2024/04/15 12:43:17;;;;;;;;;;;13.30;99.90;;;;;;5429514;26;19929;-79
2024/04/15 12:45:43;;;;;;;;;;;13.40;99.90;;;;;;5439930;26;20816;-75
2024/04/15 12:48:18;;;;;;;;;;;13.60;99.90;;;;;;5452258;26;19935;-76
2024/04/15 12:50:44;;;;;;;;;;;13.70;99.90;;;;;;5449266;26;19928;-75
2024/04/15 12:53:10;;;;;;;;;;;13.90;99.90;;;;;;5447585;26;19934;-75
2024/04/15 12:55:36;;;;;;;;;;;13.90;99.90;;;;;;5442669;26;19929;-76
2024/04/15 12:58:03;;;;;;;;;;;14.00;99.90;;;;;;5451763;26;19928;-77
2024/04/15 13:00:28;;;;;;;;;;;14.10;99.90;;;;;;5457547;26;19936;-76
2024/04/15 13:02:54;;;;;;;;;;;14.00;99.90;;;;;;5434743;26;19929;-82
2024/04/15 13:05:19;;;;;;;;;;;14.00;99.90;;;;;;5440110;26;20385;-76
2024/04/15 13:07:45;;;;;;;;;;;13.90;99.90;;;;;;5425662;26;19929;-77
2024/04/15 13:10:11;;;;;;;;;;;14.00;99.90;;;;;;5439926;26;19935;-77
2024/04/15 13:12:36;;;;;;;;;;;14.40;99.90;;;;;;5429349;26;19956;-77
2024/04/15 13:15:02;;;;;;;;;;;14.70;99.90;;;;;;5448505;26;20228;-77
2024/04/15 13:17:27;;;;;;;;;;;14.80;99.90;;;;;;5452103;26;20319;-77
2024/04/15 13:19:53;;;;;;;;;;;14.80;99.90;;;;;;5450071;26;20387;-75
2024/04/15 13:22:18;;;;;;;;;;;14.90;99.90;;;;;;5443804;26;19929;-77
2024/04/15 13:24:44;;;;;;;;;;;14.60;99.90;;;;;;5446451;26;19928;-75
2024/04/15 13:27:09;;;;;;;;;;;14.40;99.90;;;;;;5448239;26;20647;-76
2024/04/15 13:29:35;;;;;;;;;;;14.40;99.90;;;;;;5449545;26;19928;-75
2024/04/15 13:32:01;;;;;;;;;;;14.40;99.90;;;;;;5455445;26;19928;-76
2024/04/15 13:34:27;;;;;;;;;;;14.40;99.90;;;;;;5444993;26;20306;-81
2024/04/15 13:36:55;;;;;;;;;;;14.10;99.90;;;;;;5449771;26;19975;-78
2024/04/15 13:39:21;;;;;;;;;;;13.70;99.90;;;;;;5449993;26;20371;-78
2024/04/15 13:41:47;;;;;;;;;;;13.40;99.90;;;;;;5430671;26;20516;-76
2024/04/15 13:44:12;;;;;;;;;;;12.80;99.90;;;;;;5455302;26;19956;-77
2024/04/15 13:46:38;;;;;;;;;;;11.50;99.90;;;;;;5448482;26;19943;-76
2024/04/15 13:49:03;;;;;;;;;;;10.40;99.90;;;;;;5444047;26;19936;-76
2024/04/15 13:51:30;;;;;;;;;;;9.70;99.90;;;;;;5428722;26;19937;-76
2024/04/15 13:53:55;;;;;;;;;;;9.20;99.90;;;;;;5448761;26;19929;-76
2024/04/15 13:56:21;;;;;;;;;;;8.80;99.90;;;;;;5444017;26;19996;-77
2024/04/15 13:58:46;;;;;;;;;;;8.50;99.90;;;;;;5444555;26;19949;-76
2024/04/15 14:01:12;;;;;;;;;;;8.30;99.90;;;;;;5452656;26;19935;-76
2024/04/15 14:03:37;;;;;;;;;;;8.10;99.90;;;;;;5437592;26;20006;-77
2024/04/15 14:06:04;;;;;;;;;;;8.00;99.90;;;;;;5428897;26;20337;-76
2024/04/15 14:08:29;;;;;;;;;;;8.00;99.90;;;;;;5450343;26;19943;-78
2024/04/15 14:10:55;;;;;;;;;;;7.90;99.90;;;;;;5431472;26;19929;-78
2024/04/15 14:13:21;;;;;;;;;;;7.80;99.90;;;;;;5446801;26;19977;-77